Time;durP1;ratioP1;P1;durP2;ratioP2;P2;SDS_P1;SDS_P2;PMS_P1;PMS_P2;Temp;Humidity;BMP_temperature;BMP_pressure;BME280_temperature;BME280_humidity;BME280_pressure;Samples;Min_cycle;Max_cycle;Signal;HPM_P1;HPM_P2
2023/01/09 00:01:45;;;;;;;4.10;2.50;;;;;;;-3.54;82.62;99182.29;105522;1257;73856;-26
2023/01/09 00:04:12;;;;;;;5.80;3.70;;;;;;;-3.17;82.44;99177.90;105247;1264;61128;-27
2023/01/09 00:06:39;;;;;;;9.10;4.60;;;;;;;-3.06;81.42;99180.39;105452;1260;62809;-26
2023/01/09 00:09:06;;;;;;;6.80;2.30;;;;;;;-3.21;81.84;99179.02;105364;1256;75636;-27
2023/01/09 00:11:33;;;;;;;4.30;2.90;;;;;;;-3.42;82.18;99178.30;105167;1257;76930;-28
2023/01/09 00:14:00;;;;;;;11.60;3.80;;;;;;;-3.63;83.06;99173.14;105490;1260;74868;-27
2023/01/09 00:16:27;;;;;;;6.00;3.10;;;;;;;-3.35;83.15;99168.29;105204;1258;62028;-28
2023/01/09 00:18:55;;;;;;;6.70;3.60;;;;;;;-3.07;81.91;99161.70;105381;1257;61860;-24
2023/01/09 00:21:22;;;;;;;5.60;4.00;;;;;;;-3.18;81.80;99158.41;105493;1257;74445;-24
2023/01/09 00:23:52;;;;;;;11.40;4.60;;;;;;;-3.38;82.29;99156.65;105505;1257;76821;-24
2023/01/09 00:26:19;;;;;;;6.80;4.10;;;;;;;-3.56;82.92;99157.92;105242;1260;75208;-24
2023/01/09 00:28:48;;;;;;;6.70;4.20;;;;;;;-3.29;82.94;99157.29;105461;1257;61948;-24
2023/01/09 00:31:15;;;;;;;6.80;3.20;;;;;;;-3.08;81.97;99165.66;105066;1257;61566;-24
2023/01/09 00:33:44;;;;;;;6.30;3.60;;;;;;;-3.15;81.64;99164.11;105265;1257;75505;-24
2023/01/09 00:36:11;;;;;;;4.80;3.40;;;;;;;-3.35;82.07;99153.89;105293;1257;76875;-24
2023/01/09 00:38:38;;;;;;;5.50;3.60;;;;;;;-3.57;82.96;99150.80;105487;1257;73938;-24
2023/01/09 00:41:06;;;;;;;6.00;3.90;;;;;;;-3.30;82.98;99145.27;105247;1258;61728;-24
2023/01/09 00:43:36;;;;;;;5.90;3.50;;;;;;;-3.07;81.81;99142.86;105163;1257;61458;-25
2023/01/09 00:46:04;;;;;;;3.30;2.00;;;;;;;-3.16;81.96;99148.67;105140;1259;74123;-24
2023/01/09 00:48:31;;;;;;;7.70;3.30;;;;;;;-3.30;81.82;99144.76;105366;1257;76811;-24
2023/01/09 00:50:58;;;;;;;5.40;3.00;;;;;;;-3.53;82.73;99141.03;105029;1257;74274;-24
2023/01/09 00:53:28;;;;;;;4.90;2.30;;;;;;;-3.28;82.95;99145.73;105195;1257;62059;-24
2023/01/09 00:55:57;;;;;;;8.80;3.40;;;;;;;-3.01;81.70;99133.20;105182;1257;61508;-26
2023/01/09 00:58:24;;;;;;;5.50;3.30;;;;;;;-3.12;81.42;99136.69;105138;1257;75525;-24
2023/01/09 01:00:51;;;;;;;5.60;3.20;;;;;;;-3.27;81.81;99143.52;105329;1263;77132;-24
2023/01/09 01:03:18;;;;;;;8.30;4.20;;;;;;;-3.48;82.44;99136.50;105413;1257;75199;-24
2023/01/09 01:08:31;;;;;;;4.30;2.60;;;;;;;-2.99;81.22;99119.90;105568;1257;61763;-25
2023/01/09 01:11:07;;;;;;;4.40;2.70;;;;;;;-3.00;80.92;99113.48;105584;1261;75228;-25
2023/01/09 01:13:38;;;;;;;4.90;3.40;;;;;;;-3.26;81.31;99110.71;105321;1263;74943;-25
2023/01/09 01:16:07;;;;;;;4.60;3.00;;;;;;;-3.46;82.08;99109.13;105007;1259;74705;-25
2023/01/09 01:18:34;;;;;;;6.50;4.40;;;;;;;-3.23;82.37;99098.23;105255;1258;61112;-25
2023/01/09 01:21:07;;;;;;;6.00;4.30;;;;;;;-2.91;81.17;99096.79;105275;1263;62554;-25
2023/01/09 01:23:34;;;;;;;;;;;;;;;-2.95;80.62;99089.91;105223;1265;75534;-25
2023/01/09 01:26:12;;;;;;;5.90;3.40;;;;;;;-3.17;81.32;99083.66;105258;1260;75918;-25
2023/01/09 01:28:39;;;;;;;6.10;4.00;;;;;;;-3.43;82.24;99070.19;105181;1263;73906;-24
2023/01/09 01:31:06;;;;;;;9.40;4.30;;;;;;;-3.32;82.61;99059.57;105447;1257;62037;-25
2023/01/09 01:33:33;;;;;;;9.30;4.40;;;;;;;-3.03;81.88;99061.73;105263;1257;62521;-25
2023/01/09 01:36:06;;;;;;;7.50;4.20;;;;;;;-3.09;81.48;99046.44;105504;1257;74340;-25
2023/01/09 01:38:33;;;;;;;6.30;3.80;;;;;;;-3.33;82.12;99039.40;105265;1257;76755;-25
2023/01/09 01:41:01;;;;;;;11.80;4.80;;;;;;;-3.47;82.73;99033.10;105457;1263;75266;-25
2023/01/09 01:43:48;;;;;;;6.20;3.40;;;;;;;-3.11;82.52;99020.67;105590;1257;61199;-24
2023/01/09 01:46:16;;;;;;;5.20;3.50;;;;;;;-3.04;81.84;99011.65;105558;1257;61733;-25
2023/01/09 01:48:44;;;;;;;9.10;3.20;;;;;;;-3.25;81.97;98995.88;105541;1257;76334;-25
2023/01/09 01:51:13;;;;;;;5.30;3.20;;;;;;;-3.43;82.81;98997.02;105724;1254;76838;-25
2023/01/09 01:53:42;;;;;;;6.90;4.50;;;;;;;-3.29;83.23;98988.02;105738;1254;73972;-27
2023/01/09 01:56:27;;;;;;;5.30;3.10;;;;;;;-2.94;82.14;98987.80;105697;1254;61097;-29
2023/01/09 01:59:03;;;;;;;7.90;4.10;;;;;;;-2.98;82.00;98971.77;105534;1262;61508;-26
2023/01/09 02:01:31;;;;;;;8.60;4.80;;;;;;;-3.18;82.19;98978.23;105313;1260;75294;-26
2023/01/09 02:03:59;;;;;;;7.00;4.70;;;;;;;-3.40;83.26;98965.03;105598;1254;77115;-26
2023/01/09 02:06:27;;;;;;;8.30;4.90;;;;;;;-3.15;83.46;98962.70;105377;1254;74071;-26
2023/01/09 02:08:55;;;;;;;7.90;5.00;;;;;;;-2.96;82.55;98956.92;105716;1262;61215;-26
2023/01/09 02:11:21;;;;;;;8.40;5.60;;;;;;;-3.11;83.04;98950.87;105765;1259;62519;-26
2023/01/09 02:13:48;;;;;;;8.70;4.30;;;;;;;-3.31;83.47;98970.58;105604;1254;75219;-25
2023/01/09 02:16:39;;;;;;;5.70;3.70;;;;;;;-3.27;84.01;98977.79;105546;1259;76847;-26
2023/01/09 02:19:15;;;;;;;5.90;4.40;;;;;;;-2.87;83.04;98962.09;105799;1259;75025;-26
2023/01/09 02:21:42;;;;;;;3.90;2.50;;;;;;;-2.88;82.51;98966.19;105577;1259;62381;-26
2023/01/09 02:24:44;;;;;;;7.40;3.70;;;;;;;-3.05;83.00;98965.48;105786;1254;62523;-26
2023/01/09 02:27:41;;;;;;;5.60;2.80;;;;;;;-3.26;83.87;98971.46;105122;1254;74939;-26
2023/01/09 02:30:15;;;;;;;4.50;3.20;;;;;;;-2.89;83.51;98974.58;105446;1258;75597;-26
2023/01/09 02:33:15;;;;;;;6.30;3.80;;;;;;;-2.77;82.62;98989.19;105667;1254;73827;-26
2023/01/09 02:36:16;;;;;;;3.40;2.60;;;;;;;-2.91;82.85;99005.03;105471;1259;61220;-25
2023/01/09 02:38:53;;;;;;;6.00;2.50;;;;;;;-3.14;83.75;99001.04;105400;1259;62523;-26
2023/01/09 02:41:24;;;;;;;6.90;4.30;;;;;;;-2.80;83.56;98990.61;105484;1254;76569;-26
2023/01/09 02:44:09;;;;;;;3.90;3.10;;;;;;;-2.53;82.52;98979.67;105432;1254;75630;-26
2023/01/09 02:46:36;;;;;;;7.20;4.60;;;;;;;-2.64;82.22;98976.07;105550;1254;75294;-26
2023/01/09 02:49:03;;;;;;;6.70;3.40;;;;;;;-2.85;82.73;98978.52;105419;1254;62074;-26
2023/01/09 02:52:19;;;;;;;5.40;3.20;;;;;;;-3.06;83.68;98977.07;105582;1259;62630;-26
2023/01/09 02:55:07;;;;;;;8.60;4.20;;;;;;;-2.67;83.57;98973.79;105202;1254;76292;-26
2023/01/09 02:57:42;;;;;;;3.90;2.90;;;;;;;-2.52;82.30;98971.50;105594;1259;76892;-26
2023/01/09 03:00:40;;;;;;;6.00;3.90;;;;;;;-2.69;82.57;98972.32;105622;1257;75088;-26
2023/01/09 03:03:43;;;;;;;6.50;3.30;;;;;;;-2.98;83.58;98982.96;105694;1255;61934;-26
2023/01/09 03:06:23;;;;;;;7.40;4.00;;;;;;;-2.71;83.68;98991.58;105654;1254;61110;-26
2023/01/09 03:09:02;;;;;;;4.40;2.50;;;;;;;-2.31;82.49;98989.59;105742;1259;76315;-26
2023/01/09 03:11:31;;;;;;;4.90;3.40;;;;;;;-2.31;81.77;98985.49;105630;1254;76832;-26
2023/01/09 03:14:03;;;;;;;4.80;3.70;;;;;;;-2.57;82.38;98981.33;105711;1254;73056;-26
2023/01/09 03:16:31;;;;;;;5.70;3.70;;;;;;;-2.85;83.29;98976.33;105534;1262;61182;-26
2023/01/09 03:18:58;;;;;;;8.40;3.80;;;;;;;-2.63;83.70;98967.88;105315;1254;61429;-26
2023/01/09 03:21:25;;;;;;;6.50;4.00;;;;;;;-2.37;82.85;98963.91;105536;1254;74995;-26
2023/01/09 03:24:00;;;;;;;4.40;3.00;;;;;;;-2.37;82.41;98971.20;105709;1254;75417;-26
2023/01/09 03:26:30;;;;;;;6.10;3.20;;;;;;;-2.53;82.71;98970.83;105468;1259;75110;-26
2023/01/09 03:28:57;;;;;;;4.90;3.20;;;;;;;-2.73;83.16;98962.40;105477;1257;61867;-26
2023/01/09 03:31:24;;;;;;;5.10;3.30;;;;;;;-2.72;83.92;98947.07;105614;1254;61460;-26
2023/01/09 03:33:52;;;;;;;4.90;3.40;;;;;;;-2.34;82.95;98942.05;105802;1254;76123;-26
2023/01/09 03:36:21;;;;;;;3.60;2.80;;;;;;;-2.30;82.45;98943.12;105784;1258;76926;-26
2023/01/09 03:38:48;;;;;;;6.60;4.10;;;;;;;-2.42;82.62;98940.60;105718;1259;74819;-27
2023/01/09 03:41:16;;;;;;;5.40;3.20;;;;;;;-2.60;83.22;98931.45;105689;1258;61862;-28
2023/01/09 03:43:43;;;;;;;6.30;3.60;;;;;;;-2.58;83.47;98932.58;105660;1254;61630;-25
2023/01/09 03:46:10;;;;;;;5.30;2.90;;;;;;;-2.18;82.85;98941.73;105695;1259;75920;-25
2023/01/09 03:48:37;;;;;;;6.30;3.90;;;;;;;-2.15;82.36;98922.41;105739;1258;76923;-25
2023/01/09 03:51:04;;;;;;;7.00;4.20;;;;;;;-2.40;82.53;98925.74;105656;1254;73299;-25
2023/01/09 03:53:31;;;;;;;6.60;3.90;;;;;;;-2.65;83.63;98918.82;105715;1254;61193;-25
2023/01/09 03:55:58;;;;;;;4.80;3.00;;;;;;;-2.65;84.44;98921.55;105555;1254;63037;-25
2023/01/09 03:58:25;;;;;;;6.80;4.30;;;;;;;-2.26;83.69;98935.35;105754;1254;75296;-25
2023/01/09 04:00:57;;;;;;;4.90;3.20;;;;;;;-2.21;83.13;98929.07;105344;1259;75166;-25
2023/01/09 04:03:24;;;;;;;6.20;3.90;;;;;;;-2.38;83.16;98919.05;105378;1254;75272;-26
2023/01/09 04:05:51;;;;;;;4.50;2.90;;;;;;;-2.62;84.13;98909.05;105789;1259;62043;-25
2023/01/09 04:08:18;;;;;;;7.30;3.90;;;;;;;-2.48;84.40;98907.27;105673;1259;62850;-25
2023/01/09 04:10:46;;;;;;;7.00;4.50;;;;;;;-2.15;83.91;98906.60;105682;1254;76000;-25
2023/01/09 04:13:13;;;;;;;6.40;4.20;;;;;;;-2.22;83.35;98909.53;105715;1254;76766;-25
2023/01/09 04:15:40;;;;;;;7.60;4.40;;;;;;;-2.42;83.89;98918.84;105364;1257;75213;-25
2023/01/09 04:18:07;;;;;;;5.30;3.00;;;;;;;-2.61;84.74;98919.04;105655;1259;63578;-25
2023/01/09 04:20:34;;;;;;;8.70;4.80;;;;;;;-2.33;84.86;98909.70;105599;1254;61477;-25
2023/01/09 04:23:02;;;;;;;5.30;3.60;;;;;;;-2.11;83.79;98900.35;105774;1260;76357;-25
2023/01/09 04:25:28;;;;;;;6.50;3.80;;;;;;;-2.20;83.83;98914.08;105816;1255;76788;-25
2023/01/09 04:27:56;;;;;;;5.40;3.80;;;;;;;-2.38;84.18;98917.17;105681;1254;75476;-25
2023/01/09 04:30:23;;;;;;;6.10;4.30;;;;;;;-2.49;85.05;98910.38;105726;1254;63394;-24
2023/01/09 04:32:50;;;;;;;5.50;3.20;;;;;;;-2.12;84.76;98910.44;105649;1254;62590;-25
2023/01/09 04:35:18;;;;;;;7.20;4.10;;;;;;;-1.97;83.94;98892.77;105650;1254;76039;-25
2023/01/09 04:37:45;;;;;;;5.80;4.00;;;;;;;-2.14;83.80;98892.27;105620;1254;76765;-25
2023/01/09 04:40:13;;;;;;;4.80;2.90;;;;;;;-2.38;84.46;98895.25;105834;1254;74088;-25
2023/01/09 04:42:40;;;;;;;6.00;3.60;;;;;;;-2.46;85.57;98895.14;105657;1254;62846;-25
2023/01/09 04:45:09;;;;;;;5.90;3.10;;;;;;;-2.13;85.10;98889.52;105693;1259;62782;-26
2023/01/09 04:47:35;;;;;;;7.30;4.50;;;;;;;-2.03;84.52;98892.95;105713;1254;75010;-25
2023/01/09 04:50:03;;;;;;;7.30;4.60;;;;;;;-2.18;84.40;98873.20;105817;1254;76534;-25
2023/01/09 04:52:30;;;;;;;4.00;3.00;;;;;;;-2.43;85.46;98873.29;105637;1260;74125;-25
2023/01/09 04:54:57;;;;;;;4.10;2.50;;;;;;;-2.26;85.70;98880.93;105613;1254;61209;-25
2023/01/09 04:57:24;;;;;;;7.00;3.40;;;;;;;-1.79;84.37;98889.80;105800;1260;62500;-25
2023/01/09 04:59:51;;;;;;;6.00;3.40;;;;;;;-1.75;83.36;98880.27;105695;1259;76506;-25
2023/01/09 05:02:19;;;;;;;6.00;3.80;;;;;;;-1.99;83.96;98879.91;105814;1254;76854;-25
2023/01/09 05:04:46;;;;;;;6.70;3.60;;;;;;;-2.20;84.55;98879.73;105691;1255;75187;-25
2023/01/09 05:07:13;;;;;;;4.20;2.90;;;;;;;-2.23;85.12;98883.38;105638;1253;62671;-25
2023/01/09 05:09:41;;;;;;;6.20;4.00;;;;;;;-1.79;84.41;98888.45;105600;1259;62676;-24
2023/01/09 05:12:08;;;;;;;4.50;3.00;;;;;;;-1.73;83.45;98890.61;105785;1258;76350;-25
2023/01/09 05:14:35;;;;;;;6.80;4.20;;;;;;;-1.90;83.88;98882.52;105680;1254;76748;-25
2023/01/09 05:17:02;;;;;;;6.80;4.50;;;;;;;-2.17;84.51;98876.05;105803;1258;74227;-25
2023/01/09 05:19:29;;;;;;;5.30;4.00;;;;;;;-2.26;85.43;98869.68;105804;1254;62256;-25
2023/01/09 05:21:56;;;;;;;6.50;4.30;;;;;;;-1.90;84.70;98856.65;105650;1259;62583;-26
2023/01/09 05:24:23;;;;;;;11.00;5.40;;;;;;;-1.85;83.98;98850.54;105788;1254;76253;-27
2023/01/09 05:26:50;;;;;;;6.40;4.60;;;;;;;-2.07;84.63;98847.30;105776;1254;76357;-27
2023/01/09 05:29:17;;;;;;;8.50;5.00;;;;;;;-2.26;85.08;98846.23;105675;1255;75251;-25
2023/01/09 05:31:44;;;;;;;7.80;5.80;;;;;;;-2.13;85.81;98839.68;105760;1258;62369;-25
2023/01/09 05:34:11;;;;;;;9.00;5.50;;;;;;;-1.84;84.76;98838.06;105742;1259;62635;-25
2023/01/09 05:36:38;;;;;;;11.60;4.00;;;;;;;-1.90;84.48;98836.23;105686;1254;76443;-25
2023/01/09 05:39:06;;;;;;;7.90;4.40;;;;;;;-2.09;84.79;98840.92;105837;1259;76683;-25
2023/01/09 05:41:33;;;;;;;9.30;5.00;;;;;;;-2.24;85.69;98830.87;105793;1257;74106;-25
2023/01/09 05:44:00;;;;;;;4.90;3.50;;;;;;;-1.94;85.39;98817.09;105624;1259;62138;-25
2023/01/09 05:46:27;;;;;;;9.60;6.20;;;;;;;-1.79;84.63;98805.73;105598;1259;62625;-25
2023/01/09 05:48:54;;;;;;;7.80;4.50;;;;;;;-1.96;84.80;98805.96;105809;1257;74869;-25
2023/01/09 05:51:20;;;;;;;6.30;3.90;;;;;;;-2.20;85.53;98819.19;105599;1260;76504;-25
2023/01/09 05:53:47;;;;;;;7.00;4.00;;;;;;;-2.04;85.82;98825.28;105681;1254;75277;-25
2023/01/09 05:56:14;;;;;;;12.60;5.70;;;;;;;-1.78;85.07;98823.21;105662;1259;61118;-25
2023/01/09 05:58:41;;;;;;;11.30;6.00;;;;;;;-1.86;84.84;98810.05;105861;1254;61643;-25
2023/01/09 06:01:08;;;;;;;6.60;4.20;;;;;;;-2.08;85.46;98815.02;105852;1254;76106;-25
2023/01/09 06:03:35;;;;;;;6.00;3.50;;;;;;;-2.13;86.33;98824.39;105627;1254;76819;-25
2023/01/09 06:06:03;;;;;;;6.50;4.50;;;;;;;-1.77;85.24;98826.92;105521;1254;74116;-25
2023/01/09 06:08:30;;;;;;;6.20;4.20;;;;;;;-1.73;84.84;98829.69;105732;1254;61459;-25
2023/01/09 06:10:57;;;;;;;8.70;4.30;;;;;;;-1.88;84.97;98830.01;105839;1260;63149;-25
2023/01/09 06:13:24;;;;;;;7.20;4.60;;;;;;;-2.07;85.74;98832.17;105656;1259;76374;-25
2023/01/09 06:15:51;;;;;;;9.00;4.70;;;;;;;-1.91;85.92;98828.91;105680;1254;76709;-25
2023/01/09 06:18:18;;;;;;;6.20;3.70;;;;;;;-1.62;84.98;98827.60;105848;1259;75056;-25
2023/01/09 06:20:45;;;;;;;9.10;5.30;;;;;;;-1.68;84.38;98830.35;105662;1259;61201;-25
2023/01/09 06:23:12;;;;;;;9.40;4.90;;;;;;;-1.91;85.22;98824.33;105830;1254;62014;-25
2023/01/09 06:25:40;;;;;;;4.00;2.80;;;;;;;-2.04;85.83;98833.80;105647;1259;75050;-25
2023/01/09 06:28:07;;;;;;;9.70;4.60;;;;;;;-1.60;85.42;98833.16;105655;1254;75538;-25
2023/01/09 06:30:34;;;;;;;6.30;3.80;;;;;;;-1.44;84.35;98831.06;105665;1257;75208;-25
2023/01/09 06:33:01;;;;;;;7.50;5.10;;;;;;;-1.58;84.27;98833.08;105726;1257;61154;-25
2023/01/09 06:35:28;;;;;;;3.70;2.00;;;;;;;-1.82;84.71;98841.73;105590;1259;62515;-24
2023/01/09 06:37:55;;;;;;;2.80;2.30;;;;;;;-1.89;85.61;98841.45;105772;1257;74997;-25
2023/01/09 06:40:22;;;;;;;5.80;3.60;;;;;;;-1.51;84.97;98831.30;105734;1254;76767;-25
2023/01/09 06:42:49;;;;;;;7.80;4.10;;;;;;;-1.34;84.20;98836.84;105593;1257;74928;-25
2023/01/09 06:45:16;;;;;;;9.50;4.80;;;;;;;-1.52;83.94;98834.41;105494;1257;62133;-25
2023/01/09 06:47:43;;;;;;;6.20;3.50;;;;;;;-1.74;84.74;98838.73;105652;1259;61441;-25
2023/01/09 06:50:10;;;;;;;8.00;4.20;;;;;;;-1.83;85.60;98833.45;105551;1260;75256;-25
2023/01/09 06:52:38;;;;;;;10.90;5.30;;;;;;;-1.47;84.91;98825.72;105795;1254;76786;-25
2023/01/09 06:55:06;;;;;;;10.20;4.30;;;;;;;-1.43;84.01;98812.97;105643;1257;75074;-25
2023/01/09 06:57:33;;;;;;;7.50;4.60;;;;;;;-1.55;84.24;98801.64;105474;1260;62309;-25
2023/01/09 07:00:00;;;;;;;6.60;4.50;;;;;;;-1.77;84.92;98804.29;105695;1254;63037;-25
2023/01/09 07:02:28;;;;;;;5.10;3.40;;;;;;;-1.76;85.41;98805.27;105843;1259;76287;-25
2023/01/09 07:04:55;;;;;;;9.60;5.30;;;;;;;-1.41;84.46;98808.14;105813;1257;75760;-25
2023/01/09 07:07:22;;;;;;;6.10;4.10;;;;;;;-1.38;84.05;98812.80;105731;1259;73828;-25
2023/01/09 07:09:49;;;;;;;5.30;3.40;;;;;;;-1.54;84.15;98805.86;105591;1255;61112;-25
2023/01/09 07:12:16;;;;;;;5.90;3.70;;;;;;;-1.76;84.70;98797.77;105654;1254;61765;-25
2023/01/09 07:14:43;;;;;;;5.40;3.30;;;;;;;-1.51;84.86;98798.09;105852;1263;75206;-25
2023/01/09 07:17:13;;;;;;;3.70;2.50;;;;;;;-1.24;83.85;98792.02;105793;1254;76607;-25
2023/01/09 07:19:40;;;;;;;10.00;4.80;;;;;;;-1.29;83.52;98788.95;105808;1258;73792;-25
2023/01/09 07:22:08;;;;;;;10.00;4.00;;;;;;;-1.49;84.04;98780.32;105512;1258;61201;-25
2023/01/09 07:24:34;;;;;;;7.50;5.00;;;;;;;-1.68;84.70;98787.48;105327;1262;62753;-25
2023/01/09 07:27:01;;;;;;;8.10;4.70;;;;;;;-1.39;84.76;98794.27;105547;1258;76056;-25
2023/01/09 07:29:29;;;;;;;5.70;4.10;;;;;;;-1.10;83.50;98794.06;105686;1259;76786;-25
2023/01/09 07:31:56;;;;;;;5.50;3.40;;;;;;;-1.18;83.26;98801.86;105464;1260;75332;-25
2023/01/09 07:34:23;;;;;;;12.30;5.90;;;;;;;-1.37;83.69;98789.26;105674;1259;61867;-25
2023/01/09 07:36:50;;;;;;;5.10;3.30;;;;;;;-1.60;84.38;98775.77;105588;1254;61090;-24
2023/01/09 07:39:17;;;;;;;7.70;4.40;;;;;;;-1.21;84.41;98784.05;105670;1254;75908;-25
2023/01/09 07:41:44;;;;;;;6.80;4.40;;;;;;;-0.96;83.10;98792.84;105690;1254;76785;-25
2023/01/09 07:44:13;;;;;;;4.30;3.50;;;;;;;-1.04;83.00;98780.89;105682;1260;75165;-25
2023/01/09 07:46:40;;;;;;;6.60;4.50;;;;;;;-1.26;83.45;98780.16;105633;1258;61928;-25
2023/01/09 07:49:07;;;;;;;5.30;3.30;;;;;;;-1.45;84.28;98781.18;105804;1259;62773;-25
2023/01/09 07:51:34;;;;;;;5.90;3.20;;;;;;;-1.08;84.28;98788.88;105724;1254;75302;-25
2023/01/09 07:54:01;;;;;;;7.10;4.40;;;;;;;-0.88;83.31;98804.83;105761;1259;76747;-25
2023/01/09 07:56:28;;;;;;;5.00;3.30;;;;;;;-1.00;83.22;98799.32;105605;1260;73827;-25
2023/01/09 07:58:55;;;;;;;8.20;4.50;;;;;;;-1.22;83.90;98795.34;105409;1258;61720;-25
2023/01/09 08:01:22;;;;;;;4.40;2.90;;;;;;;-1.22;84.52;98791.23;105490;1260;61135;-25
2023/01/09 08:03:49;;;;;;;10.60;4.20;;;;;;;-0.81;83.85;98789.05;105667;1254;75251;-25
2023/01/09 08:06:16;;;;;;;6.40;3.50;;;;;;;-0.79;83.18;98783.98;105847;1260;76847;-25
2023/01/09 08:08:43;;;;;;;4.80;3.00;;;;;;;-0.93;83.35;98789.17;105671;1261;75283;-25
2023/01/09 08:11:10;;;;;;;3.30;2.10;;;;;;;-1.08;83.74;98792.43;105674;1260;61815;-25
2023/01/09 08:13:37;;;;;;;3.90;2.60;;;;;;;-0.97;84.42;98799.02;105690;1253;61437;-27
2023/01/09 08:16:05;;;;;;;5.20;3.50;;;;;;;-0.53;83.39;98790.67;105848;1253;75204;-27
2023/01/09 08:18:32;;;;;;;8.10;3.40;;;;;;;-0.49;82.60;98777.36;105838;1257;76831;-27
2023/01/09 08:20:59;;;;;;;4.30;3.00;;;;;;;-0.66;82.96;98771.59;105304;1261;74706;-26
2023/01/09 08:23:26;;;;;;;5.60;3.30;;;;;;;-0.89;83.47;98772.97;105553;1254;61749;-27
2023/01/09 08:25:53;;;;;;;9.00;4.70;;;;;;;-0.94;84.30;98775.73;105688;1257;61733;-25
2023/01/09 08:28:20;;;;;;;7.90;4.60;;;;;;;-0.63;83.77;98771.14;105649;1260;76075;-27
2023/01/09 08:30:47;;;;;;;8.40;3.40;;;;;;;-0.53;83.05;98769.71;105792;1254;76833;-26
2023/01/09 08:33:14;;;;;;;8.10;4.60;;;;;;;-0.76;83.54;98775.21;105858;1260;75106;-26
2023/01/09 08:35:43;;;;;;;8.40;4.80;;;;;;;-0.96;84.38;98780.25;105603;1260;61995;-24
2023/01/09 08:38:10;;;;;;;5.20;3.30;;;;;;;-0.66;84.40;98781.98;105541;1259;62482;-24
2023/01/09 08:40:37;;;;;;;4.30;2.40;;;;;;;-0.31;83.06;98787.26;105658;1258;76281;-24
2023/01/09 08:48:27;;;;;;;5.00;3.50;;;;;;;-0.74;83.75;98781.23;105671;1255;61688;-24
2023/01/09 08:50:54;;;;;;;7.60;3.10;;;;;;;-0.57;84.04;98792.34;105700;1259;61756;-24
2023/01/09 08:53:21;;;;;;;5.30;2.50;;;;;;;-0.27;83.13;98781.26;105666;1254;76392;-24
2023/01/09 08:55:48;;;;;;;5.90;3.20;;;;;;;-0.27;82.90;98784.20;105794;1258;76680;-24
2023/01/09 08:58:15;;;;;;;7.40;3.30;;;;;;;-0.48;83.14;98787.92;105442;1257;75339;-24
2023/01/09 09:00:42;;;;;;;4.80;2.80;;;;;;;-0.67;84.12;98782.69;105582;1258;62039;-24
2023/01/09 09:03:10;;;;;;;5.50;3.30;;;;;;;-0.39;83.89;98781.91;105609;1255;62509;-24
2023/01/09 09:05:38;;;;;;;8.00;4.90;;;;;;;-0.16;83.02;98778.58;105645;1260;76314;-24
2023/01/09 09:08:05;;;;;;;10.00;4.80;;;;;;;-0.27;82.94;98776.14;105643;1260;75775;-25
2023/01/09 09:10:33;;;;;;;7.80;2.70;;;;;;;-0.49;83.62;98782.84;105633;1254;75244;-25
2023/01/09 09:12:59;;;;;;;3.80;2.20;;;;;;;-0.67;84.85;98779.78;105672;1258;61142;-25
2023/01/09 09:15:27;;;;;;;6.40;3.30;;;;;;;-0.37;84.60;98776.05;105627;1254;61305;-25
2023/01/09 09:17:56;;;;;;;7.10;4.10;;;;;;;-0.12;83.55;98764.63;105664;1260;76079;-25
2023/01/09 09:20:25;;;;;;;8.40;3.30;;;;;;;-0.20;83.44;98761.88;105597;1255;76701;-25
2023/01/09 09:22:52;;;;;;;6.70;3.10;;;;;;;-0.39;83.69;98760.42;105271;1260;73903;-25
2023/01/09 09:25:19;;;;;;;6.00;3.40;;;;;;;-0.51;84.81;98753.26;105539;1260;63675;-25
2023/01/09 09:27:46;;;;;;;5.60;3.90;;;;;;;-0.15;84.09;98747.84;105771;1260;62644;-25
2023/01/09 09:30:15;;;;;;;8.80;4.40;;;;;;;-0.05;83.54;98741.46;105696;1255;76081;-25
2023/01/09 09:32:42;;;;;;;9.50;3.60;;;;;;;-0.21;83.81;98745.18;105623;1260;76574;-27
2023/01/09 09:35:09;;;;;;;4.50;2.90;;;;;;;-0.42;84.48;98746.41;105393;1263;74930;-25
2023/01/09 09:37:39;;;;;;;6.80;3.20;;;;;;;-0.24;84.76;98748.05;105634;1260;61766;-25
2023/01/09 09:40:09;;;;;;;5.50;3.70;;;;;;;0.09;83.73;98746.62;105619;1254;61045;-26
2023/01/09 09:46:24;;;;;;;7.40;3.40;;;;;;;-0.30;84.24;98735.00;104368;1265;1484062;-25
2023/01/09 09:49:04;;;;;;;4.00;3.00;;;;;;;-0.36;85.16;98734.38;105559;1260;74912;-24
2023/01/09 09:51:49;;;;;;;5.70;4.20;;;;;;;0.06;84.31;98731.06;105398;1260;61151;-25
2023/01/09 09:54:31;;;;;;;6.20;4.50;;;;;;;0.01;83.77;98718.52;105692;1263;62940;-24
2023/01/09 09:56:59;;;;;;;8.60;4.20;;;;;;;-0.20;84.23;98727.92;105657;1260;76347;-24
2023/01/09 09:59:37;;;;;;;4.50;3.20;;;;;;;-0.42;85.25;98723.70;105623;1260;76575;-24
2023/01/09 10:02:07;;;;;;;5.60;3.60;;;;;;;-0.13;85.33;98721.65;105437;1260;74337;-24
2023/01/09 10:04:37;;;;;;;8.70;4.50;;;;;;;0.10;84.32;98722.36;105564;1260;61829;-24
2023/01/09 10:07:08;;;;;;;9.30;5.30;;;;;;;0.00;84.19;98714.92;105702;1255;62952;-24
2023/01/09 10:09:48;;;;;;;6.60;3.70;;;;;;;-0.17;84.53;98706.64;105661;1260;74977;-24
2023/01/09 10:12:26;;;;;;;7.90;3.80;;;;;;;-0.15;85.10;98704.15;105635;1260;76528;-25
2023/01/09 10:14:55;;;;;;;8.10;4.80;;;;;;;0.22;84.40;98698.14;105669;1260;74622;-25
2023/01/09 10:17:37;;;;;;;8.40;5.00;;;;;;;0.23;83.73;98687.81;105657;1254;62763;-24
2023/01/09 10:20:23;;;;;;;8.10;5.20;;;;;;;0.01;84.28;98688.10;105681;1260;62815;-25
2023/01/09 10:22:56;;;;;;;8.20;4.50;;;;;;;-0.19;85.06;98679.26;105808;1256;74827;-25
2023/01/09 10:25:23;;;;;;;8.90;5.50;;;;;;;0.04;85.33;98674.83;105660;1254;75712;-25
2023/01/09 10:28:12;;;;;;;9.30;5.60;;;;;;;0.15;84.75;98679.64;105667;1254;75242;-25
2023/01/09 10:30:42;;;;;;;11.90;6.50;;;;;;;0.05;84.60;98673.59;105780;1254;62016;-24
2023/01/09 10:33:38;;;;;;;10.60;5.10;;;;;;;-0.13;85.53;98662.92;105580;1262;61556;-25
2023/01/09 10:36:24;;;;;;;6.40;4.20;;;;;;;0.18;85.26;98662.61;105536;1259;75144;-24
2023/01/09 10:38:52;;;;;;;13.40;5.60;;;;;;;0.38;84.25;98658.13;105531;1259;77211;-24
2023/01/09 10:41:38;;;;;;;8.40;5.10;;;;;;;0.24;84.29;98651.25;105674;1254;73922;-25
2023/01/09 10:44:23;;;;;;;10.60;5.80;;;;;;;0.01;84.76;98653.13;105549;1254;61762;-25
2023/01/09 10:46:54;;;;;;;9.60;6.40;;;;;;;0.15;85.36;98642.27;105452;1254;62819;-25
2023/01/09 10:49:22;;;;;;;7.40;4.70;;;;;;;0.47;84.44;98643.36;105347;1254;76343;-25
2023/01/09 10:52:04;;;;;;;7.10;3.70;;;;;;;0.41;84.19;98643.13;105652;1254;75410;-25
2023/01/09 10:54:31;;;;;;;8.20;5.00;;;;;;;0.21;84.57;98646.58;105646;1254;74026;-25
2023/01/09 10:57:04;;;;;;;7.70;4.40;;;;;;;0.06;85.39;98647.09;105364;1269;63802;-25
2023/01/09 10:59:31;;;;;;;6.70;4.30;;;;;;;0.46;85.00;98643.09;105624;1254;62811;-25
2023/01/09 11:01:58;;;;;;;7.90;4.70;;;;;;;0.57;84.06;98647.55;105430;1254;76013;-25
2023/01/09 11:04:29;;;;;;;11.30;5.00;;;;;;;0.43;84.17;98651.40;105235;1261;76845;-25
2023/01/09 11:06:58;;;;;;;8.80;5.00;;;;;;;0.18;84.97;98653.38;105431;1260;73521;-25
2023/01/09 11:09:27;;;;;;;7.80;5.10;;;;;;;0.29;85.57;98657.67;105730;1260;62206;-25
2023/01/09 11:11:54;;;;;;;6.40;3.60;;;;;;;0.61;84.58;98664.92;105595;1264;62723;-25
2023/01/09 11:14:27;;;;;;;5.90;3.20;;;;;;;0.65;83.98;98662.52;105838;1257;76211;-25
2023/01/09 11:16:58;;;;;;;7.70;4.80;;;;;;;0.43;84.50;98652.29;105684;1254;76641;-25
2023/01/09 11:19:26;;;;;;;8.30;4.60;;;;;;;0.21;85.28;98647.29;105689;1254;74275;-25
2023/01/09 11:22:14;;;;;;;9.10;3.80;;;;;;;0.49;85.37;98648.20;105783;1254;61173;-25
2023/01/09 11:24:41;;;;;;;7.10;4.30;;;;;;;0.62;84.36;98657.02;105704;1252;61628;-25
2023/01/09 11:27:12;;;;;;;7.90;5.10;;;;;;;0.57;84.44;98656.91;105673;1260;75009;-25
2023/01/09 11:29:40;;;;;;;8.20;4.20;;;;;;;0.32;85.20;98655.31;105653;1260;75391;-25
2023/01/09 11:32:23;;;;;;;6.60;4.80;;;;;;;0.46;85.34;98655.57;105708;1260;75138;-25
2023/01/09 11:34:50;;;;;;;6.10;3.60;;;;;;;0.76;84.45;98647.99;105635;1254;62585;-25
2023/01/09 11:37:22;;;;;;;10.30;3.90;;;;;;;0.69;84.37;98646.11;105803;1257;62483;-25
2023/01/09 11:39:49;;;;;;;11.40;5.80;;;;;;;0.45;84.89;98636.31;105605;1263;76329;-25
2023/01/09 11:42:50;;;;;;;7.70;4.20;;;;;;;0.28;85.84;98638.59;105509;1254;76586;-25
2023/01/09 11:45:15;;;;;;;7.50;3.80;;;;;;;0.65;85.40;98642.05;105661;1258;75036;-25
2023/01/09 11:47:42;;;;;;;9.80;5.20;;;;;;;0.64;84.77;98631.48;105652;1254;62080;-25
2023/01/09 11:50:26;;;;;;;7.80;4.20;;;;;;;0.45;85.38;98625.38;105665;1254;62896;-25
2023/01/09 11:53:16;;;;;;;6.70;4.80;;;;;;;0.32;86.00;98625.27;105572;1254;75878;-25